Time;durP1;ratioP1;P1;durP2;ratioP2;P2;SDS_P1;SDS_P2;PMS_P1;PMS_P2;Temp;Humidity;BMP_temperature;BMP_pressure;BME280_temperature;BME280_humidity;BME280_pressure;Samples;Min_cycle;Max_cycle;Signal;HPM_P1;HPM_P2
2024/02/12 00:01:21;;;;;;;16.40;11.27;;;9.70;99.90;;;;;;5076134;28;20194;-83
2024/02/12 00:03:46;;;;;;;15.60;11.50;;;9.90;99.90;;;;;;5075798;28;20650;-84
2024/02/12 00:06:14;;;;;;;14.53;10.53;;;9.70;99.90;;;;;;5094632;28;20200;-85
2024/02/12 00:08:42;;;;;;;17.00;12.17;;;9.80;99.90;;;;;;5075907;28;20169;-85
2024/02/12 00:11:08;;;;;;;15.60;11.37;;;9.90;99.90;;;;;;5076153;28;20169;-90
2024/02/12 00:13:34;;;;;;;15.47;11.07;;;9.90;99.90;;;;;;5076140;28;20242;-84
2024/02/12 00:15:59;;;;;;;16.37;11.27;;;9.90;99.90;;;;;;5076081;28;20203;-85
2024/02/12 00:18:26;;;;;;;17.67;12.07;;;9.90;99.90;;;;;;5075965;28;20658;-84
2024/02/12 00:20:52;;;;;;;16.97;11.97;;;9.90;99.90;;;;;;5075989;28;20168;-84
2024/02/12 00:23:17;;;;;;;17.63;13.20;;;10.00;99.90;;;;;;5075537;28;20179;-84
2024/02/12 00:25:45;;;;;;;17.63;12.40;;;9.90;99.90;;;;;;5076174;28;20263;-84
2024/02/12 00:28:10;;;;;;;16.53;12.80;;;10.00;99.90;;;;;;5075754;28;20224;-84
2024/02/12 00:30:39;;;;;;;19.37;13.33;;;10.00;99.90;;;;;;5075753;28;20184;-89
2024/02/12 00:33:06;;;;;;;20.07;13.60;;;9.90;99.90;;;;;;5075911;28;20218;-84
2024/02/12 00:35:38;;;;;;;19.90;13.03;;;9.90;99.90;;;;;;5093796;28;20269;-83
2024/02/12 00:38:04;;;;;;;17.43;13.43;;;9.80;99.90;;;;;;5075455;28;20259;-89
2024/02/12 00:40:30;;;;;;;16.10;12.77;;;9.80;99.90;;;;;;5093619;28;20534;-83
2024/02/12 00:42:58;;;;;;;18.43;13.40;;;9.80;99.90;;;;;;5075674;28;20176;-85
2024/02/12 00:45:24;;;;;;;16.67;13.23;;;9.70;99.90;;;;;;5075553;28;20175;-84
2024/02/12 00:47:50;;;;;;;21.53;13.53;;;9.60;99.90;;;;;;5093667;28;20538;-88
2024/02/12 00:50:17;;;;;;;17.23;13.13;;;9.80;99.90;;;;;;5075204;28;20169;-84
2024/02/12 00:52:43;;;;;;;17.50;13.47;;;9.60;99.90;;;;;;5075093;28;20199;-84
2024/02/12 00:55:13;;;;;;;17.20;12.60;;;9.60;99.90;;;;;;5075270;28;20176;-84
2024/02/12 00:57:38;;;;;;;20.67;13.87;;;9.50;99.90;;;;;;5075194;28;20739;-86
2024/02/12 01:00:05;;;;;;;20.07;14.80;;;9.60;99.90;;;;;;5074965;28;20267;-89
2024/02/12 01:02:33;;;;;;;16.53;13.33;;;9.60;99.90;;;;;;5076405;28;20175;-83
2024/02/12 01:04:59;;;;;;;16.23;13.53;;;9.70;99.90;;;;;;5076470;28;20171;-86
2024/02/12 01:07:25;;;;;;;21.33;14.13;;;9.60;99.90;;;;;;5075089;28;20181;-84
2024/02/12 01:09:51;;;;;;;19.47;14.67;;;9.60;99.90;;;;;;5075285;28;20258;-84
2024/02/12 01:12:16;;;;;;;16.90;13.53;;;9.70;99.90;;;;;;5075455;28;20216;-84
2024/02/12 01:14:42;;;;;;;25.00;15.10;;;9.70;99.90;;;;;;5074960;28;20175;-84
2024/02/12 01:17:10;;;;;;;20.47;15.03;;;9.80;99.90;;;;;;5075065;28;20210;-85
2024/02/12 01:19:36;;;;;;;17.70;15.13;;;9.80;99.90;;;;;;5074914;28;20195;-85
2024/02/12 01:22:05;;;;;;;21.43;14.90;;;9.90;99.90;;;;;;5074828;28;20177;-84
2024/02/12 01:24:31;;;;;;;19.17;14.83;;;9.80;99.90;;;;;;5074755;28;20186;-83
2024/02/12 01:26:57;;;;;;;17.43;14.67;;;9.80;99.90;;;;;;5074661;28;20180;-84
2024/02/12 01:29:24;;;;;;;18.27;14.33;;;9.70;99.90;;;;;;5074710;28;20616;-83
2024/02/12 01:31:53;;;;;;;18.03;14.60;;;9.60;99.90;;;;;;5092870;28;20290;-85
2024/02/12 01:34:19;;;;;;;20.07;14.73;;;9.80;99.90;;;;;;5092883;28;20648;-84
2024/02/12 01:36:45;;;;;;;20.87;14.93;;;9.60;99.90;;;;;;5074532;28;20172;-83
2024/02/12 01:39:11;;;;;;;18.83;14.07;;;9.60;99.90;;;;;;5074601;28;20643;-84
2024/02/12 01:41:39;;;;;;;19.70;14.83;;;9.60;99.90;;;;;;5074473;28;20195;-84
2024/02/12 01:44:05;;;;;;;19.13;15.30;;;9.70;99.90;;;;;;5074598;28;20233;-84
2024/02/12 01:46:30;;;;;;;17.53;14.77;;;9.70;99.90;;;;;;5074692;28;20191;-84
2024/02/12 01:49:01;;;;;;;22.27;14.50;;;9.60;99.90;;;;;;5075089;28;20270;-83
2024/02/12 01:51:27;;;;;;;20.37;14.43;;;9.60;99.90;;;;;;5074788;28;20273;-83
2024/02/12 01:53:59;;;;;;;20.53;14.73;;;9.50;99.90;;;;;;5074714;28;20184;-83
2024/02/12 01:56:27;;;;;;;22.00;14.00;;;9.40;99.90;;;;;;5092750;28;20581;-83
2024/02/12 01:58:55;;;;;;;18.80;13.93;;;9.50;99.90;;;;;;5092683;28;20188;-84
2024/02/12 02:01:21;;;;;;;20.60;14.33;;;9.60;99.90;;;;;;5074310;28;20287;-85
2024/02/12 02:03:48;;;;;;;16.83;13.97;;;9.60;99.90;;;;;;5074539;28;20275;-83
2024/02/12 02:06:14;;;;;;;20.33;14.03;;;9.60;99.90;;;;;;5092490;28;20168;-84
2024/02/12 02:08:41;;;;;;;20.97;14.57;;;9.50;99.90;;;;;;5074457;28;20707;-83
2024/02/12 02:11:08;;;;;;;19.70;13.97;;;9.50;99.90;;;;;;5092541;28;20164;-83
2024/02/12 02:13:38;;;;;;;20.33;15.03;;;9.50;99.90;;;;;;5074257;28;20212;-85
2024/02/12 02:16:04;;;;;;;18.63;14.30;;;9.60;99.90;;;;;;5092419;28;20171;-83
2024/02/12 02:18:31;;;;;;;20.43;14.53;;;9.60;99.90;;;;;;5073993;28;20224;-84
2024/02/12 02:20:57;;;;;;;21.17;14.97;;;9.80;99.90;;;;;;5074047;28;20216;-84
2024/02/12 02:23:24;;;;;;;23.27;14.20;;;9.60;99.90;;;;;;5074312;28;20221;-84
2024/02/12 02:25:49;;;;;;;20.27;14.23;;;9.80;99.90;;;;;;5075108;28;20172;-83
2024/02/12 02:28:18;;;;;;;19.73;13.63;;;9.70;99.90;;;;;;5096515;28;20635;-83
2024/02/12 02:30:43;;;;;;;22.67;14.27;;;9.70;99.90;;;;;;5077973;28;20206;-84
2024/02/12 02:33:09;;;;;;;22.37;14.57;;;9.70;99.90;;;;;;5077586;28;20240;-83
2024/02/12 02:35:38;;;;;;;18.23;13.77;;;9.70;99.90;;;;;;5078078;28;20583;-84
2024/02/12 02:38:04;;;;;;;18.20;13.47;;;9.80;99.90;;;;;;5077763;28;20174;-83
2024/02/12 02:40:30;;;;;;;17.53;13.60;;;9.80;99.90;;;;;;5077797;28;20173;-84
2024/02/12 02:42:56;;;;;;;18.77;13.77;;;9.70;99.90;;;;;;5077850;28;20177;-84
2024/02/12 02:45:24;;;;;;;18.70;13.67;;;9.70;99.90;;;;;;5077768;28;20180;-83
2024/02/12 02:47:51;;;;;;;19.03;13.97;;;9.50;99.90;;;;;;5077414;28;20520;-83
2024/02/12 02:50:18;;;;;;;18.23;13.50;;;9.70;99.90;;;;;;5077651;28;20179;-86
2024/02/12 02:52:43;;;;;;;18.37;13.10;;;9.60;99.90;;;;;;5095921;28;20235;-83
2024/02/12 02:55:11;;;;;;;18.53;12.67;;;9.90;99.90;;;;;;5077638;28;20197;-89
2024/02/12 02:57:37;;;;;;;18.33;13.53;;;9.80;99.90;;;;;;5095564;28;20183;-83
2024/02/12 03:00:03;;;;;;;20.73;13.07;;;9.70;99.90;;;;;;5077666;28;20172;-85
2024/02/12 03:02:30;;;;;;;21.03;13.37;;;9.70;99.90;;;;;;5077039;28;20195;-84
2024/02/12 03:04:55;;;;;;;22.23;13.53;;;9.60;99.90;;;;;;5077670;28;20262;-84
2024/02/12 03:07:22;;;;;;;19.40;12.63;;;9.70;99.90;;;;;;5077261;28;20187;-84
2024/02/12 03:09:47;;;;;;;19.97;13.10;;;9.60;99.90;;;;;;5095662;28;20170;-84
2024/02/12 03:12:13;;;;;;;18.83;13.53;;;9.60;99.90;;;;;;5077224;28;20338;-85
2024/02/12 03:14:40;;;;;;;17.77;13.43;;;9.60;99.90;;;;;;5077365;28;20172;-84
2024/02/12 03:17:06;;;;;;;19.23;12.83;;;9.60;99.90;;;;;;5077257;28;20229;-89
2024/02/12 03:19:31;;;;;;;16.30;11.73;;;9.70;99.90;;;;;;5098135;28;20612;-84
2024/02/12 03:21:57;;;;;;;17.27;11.17;;;9.60;99.90;;;;;;5080749;28;20175;-87
2024/02/12 03:24:26;;;;;;;19.60;10.77;;;9.70;99.90;;;;;;5077285;28;20182;-82
2024/02/12 03:26:51;;;;;;;22.07;11.17;;;9.50;99.90;;;;;;5077074;28;20188;-83
2024/02/12 03:29:19;;;;;;;13.80;9.50;;;9.50;99.90;;;;;;5076871;28;20232;-83
2024/02/12 03:31:45;;;;;;;12.63;9.30;;;9.50;99.90;;;;;;5076768;28;20207;-84
2024/02/12 03:34:12;;;;;;;14.37;10.30;;;9.30;99.90;;;;;;5076871;28;20172;-83
2024/02/12 03:36:42;;;;;;;13.73;8.70;;;9.40;99.90;;;;;;5076768;28;20546;-86
2024/02/12 03:39:08;;;;;;;12.90;9.30;;;9.30;99.90;;;;;;5076139;28;20168;-84
2024/02/12 03:41:34;;;;;;;10.43;8.23;;;9.30;99.90;;;;;;5076661;28;20175;-85
2024/02/12 03:44:00;;;;;;;10.50;7.80;;;9.30;99.90;;;;;;5076775;28;20534;-84
2024/02/12 03:46:35;;;;;;;10.10;7.33;;;9.40;99.90;;;;;;5094573;28;20592;-84
2024/02/12 03:59:58;;;;;;;9.23;7.10;;;9.00;99.90;;;;;;5094560;28;20182;-84
2024/02/12 04:02:24;;;;;;;9.13;6.73;;;9.00;99.90;;;;;;5076325;28;20173;-84
2024/02/12 04:04:50;;;;;;;10.13;7.07;;;9.00;99.90;;;;;;5076238;28;20200;-83
2024/02/12 04:07:17;;;;;;;8.63;6.67;;;9.00;99.90;;;;;;5076142;28;20540;-84
2024/02/12 04:09:42;;;;;;;12.17;6.33;;;9.10;99.90;;;;;;5094327;28;20175;-84
2024/02/12 04:12:11;;;;;;;10.03;6.10;;;9.00;99.90;;;;;;5076061;28;20204;-84
2024/02/12 04:14:40;;;;;;;9.37;7.00;;;9.00;99.90;;;;;;5075953;28;20191;-87
2024/02/12 04:17:07;;;;;;;10.83;6.37;;;9.00;99.90;;;;;;5076061;28;20539;-86
2024/02/12 04:19:32;;;;;;;9.90;6.20;;;9.10;99.90;;;;;;5075738;28;20278;-84
2024/02/12 04:22:01;;;;;;;10.63;6.77;;;9.00;99.90;;;;;;5094288;28;20175;-84
2024/02/12 04:24:29;;;;;;;10.97;6.57;;;9.00;99.90;;;;;;5075907;28;20167;-84
2024/02/12 04:26:55;;;;;;;12.20;6.43;;;9.30;99.90;;;;;;5075778;28;20172;-83
2024/02/12 04:29:21;;;;;;;11.37;7.13;;;9.30;99.90;;;;;;5075541;28;20190;-86
2024/02/12 04:31:50;;;;;;;12.40;7.17;;;9.20;99.90;;;;;;5093940;28;20172;-84
2024/02/12 04:34:15;;;;;;;14.40;6.70;;;9.20;99.90;;;;;;5075307;28;20187;-83
2024/02/12 04:36:44;;;;;;;11.27;7.13;;;9.40;99.90;;;;;;5075830;28;20639;-82
2024/02/12 04:39:14;;;;;;;10.13;6.97;;;9.20;99.90;;;;;;5075286;28;20176;-84
2024/02/12 04:41:43;;;;;;;14.03;7.30;;;9.30;99.90;;;;;;5075583;28;20227;-84
2024/02/12 04:44:09;;;;;;;14.80;7.77;;;9.30;99.90;;;;;;5075230;28;20211;-83
2024/02/12 04:46:36;;;;;;;12.60;7.43;;;9.30;99.90;;;;;;5093347;28;20190;-84
2024/02/12 04:49:05;;;;;;;13.13;7.43;;;9.60;99.90;;;;;;5074499;28;20259;-83
2024/02/12 04:51:32;;;;;;;13.37;7.27;;;9.30;99.90;;;;;;5075012;28;20176;-89
2024/02/12 04:54:00;;;;;;;14.87;8.10;;;9.20;99.90;;;;;;5075259;28;20218;-83
2024/02/12 04:56:26;;;;;;;13.67;7.63;;;9.30;99.90;;;;;;5075212;28;20266;-85
2024/02/12 04:58:53;;;;;;;17.67;7.93;;;9.20;99.90;;;;;;5074892;28;20769;-83
2024/02/12 05:01:19;;;;;;;16.87;8.30;;;9.30;99.90;;;;;;5093330;28;20247;-84
2024/02/12 05:03:50;;;;;;;15.93;8.13;;;9.30;99.90;;;;;;5075328;28;20533;-83
2024/02/12 05:06:16;;;;;;;14.60;7.60;;;9.30;99.90;;;;;;5074905;28;20172;-85
2024/02/12 05:08:43;;;;;;;13.77;7.30;;;9.20;99.90;;;;;;5093020;28;20182;-92
2024/02/12 05:11:09;;;;;;;11.27;6.87;;;9.20;99.90;;;;;;5092748;28;20178;-83
2024/02/12 05:13:35;;;;;;;14.20;6.73;;;9.20;99.90;;;;;;5074657;28;20306;-85
2024/02/12 05:16:02;;;;;;;12.27;6.73;;;9.10;99.90;;;;;;5074920;28;20188;-85
2024/02/12 05:23:57;;;;;;;15.90;7.03;;;9.30;99.90;;;;;;5093461;28;20233;-84
2024/02/12 05:26:23;;;;;;;16.07;7.03;;;9.20;99.90;;;;;;5075086;28;20174;-83
2024/02/12 05:28:50;;;;;;;16.20;6.13;;;9.30;99.90;;;;;;5074537;28;20175;-83
2024/02/12 05:31:17;;;;;;;14.90;6.33;;;9.30;99.90;;;;;;5074716;28;20609;-84
2024/02/12 05:33:42;;;;;;;14.70;5.63;;;9.20;99.90;;;;;;5074953;28;20207;-84
2024/02/12 05:36:10;;;;;;;18.87;5.73;;;9.30;99.90;;;;;;5076519;28;20547;-86
2024/02/12 05:38:40;;;;;;;14.70;6.23;;;9.20;99.90;;;;;;5078312;28;20172;-87
2024/02/12 05:41:06;;;;;;;10.43;5.07;;;9.30;99.90;;;;;;5074428;28;20164;-84
2024/02/12 05:43:32;;;;;;;11.83;5.03;;;9.30;99.90;;;;;;5074363;28;20587;-84
2024/02/12 05:45:58;;;;;;;11.53;4.60;;;9.10;99.90;;;;;;5092510;28;20175;-83
2024/02/12 05:48:26;;;;;;;14.93;4.70;;;9.10;99.90;;;;;;5074618;28;20167;-83
2024/02/12 05:50:52;;;;;;;13.47;4.83;;;9.20;99.90;;;;;;5074388;28;20178;-83
2024/02/12 05:53:18;;;;;;;12.20;4.87;;;9.10;99.90;;;;;;5074132;28;20701;-83
2024/02/12 05:55:44;;;;;;;13.77;4.77;;;9.00;99.90;;;;;;5074019;28;20171;-83
2024/02/12 05:58:10;;;;;;;14.97;4.57;;;9.10;99.90;;;;;;5074225;28;20730;-85
2024/02/12 06:00:36;;;;;;;12.43;3.93;;;8.80;99.90;;;;;;5074750;28;20202;-84
2024/02/12 06:03:02;;;;;;;12.70;4.53;;;8.80;99.90;;;;;;5078387;28;20267;-83
2024/02/12 06:05:28;;;;;;;15.17;4.97;;;8.80;99.90;;;;;;5079084;28;20270;-83
2024/02/12 06:07:54;;;;;;;13.70;4.20;;;9.00;99.90;;;;;;5078972;28;20190;-84
2024/02/12 06:10:19;;;;;;;15.17;4.80;;;8.80;99.90;;;;;;5079270;28;20194;-84
2024/02/12 06:12:45;;;;;;;11.43;4.80;;;8.70;99.90;;;;;;5081304;28;20725;-84
2024/02/12 06:15:11;;;;;;;12.53;4.20;;;8.80;99.90;;;;;;5079932;28;20274;-83
2024/02/12 06:17:37;;;;;;;9.53;3.43;;;8.60;99.90;;;;;;5096148;28;20180;-84
2024/02/12 06:20:07;;;;;;;11.80;4.20;;;8.70;99.90;;;;;;5077994;28;20179;-85
2024/02/12 06:22:32;;;;;;;12.37;4.03;;;8.50;99.90;;;;;;5078085;28;20171;-84
2024/02/12 06:25:04;;;;;;;11.60;4.30;;;8.70;99.90;;;;;;5077629;28;20214;-85
2024/02/12 06:27:30;;;;;;;10.07;3.83;;;8.40;99.90;;;;;;5077867;28;20640;-83
2024/02/12 06:29:57;;;;;;;10.63;4.10;;;8.50;99.90;;;;;;5077698;28;20266;-84
2024/02/12 06:32:23;;;;;;;11.40;3.83;;;8.50;99.90;;;;;;5077624;28;20211;-84
2024/02/12 06:34:49;;;;;;;13.50;3.83;;;8.60;99.90;;;;;;5096015;28;20718;-83
2024/02/12 06:37:15;;;;;;;10.67;4.00;;;8.50;99.90;;;;;;5077668;28;20191;-84
2024/02/12 06:39:42;;;;;;;16.03;4.70;;;8.40;99.90;;;;;;5077479;28;20163;-84
2024/02/12 06:42:08;;;;;;;11.93;4.00;;;8.30;99.90;;;;;;5077587;28;20167;-85
2024/02/12 06:44:34;;;;;;;12.73;4.47;;;8.30;99.90;;;;;;5077883;28;20174;-84
2024/02/12 06:46:59;;;;;;;11.33;4.17;;;8.40;99.90;;;;;;5076867;28;20175;-84
2024/02/12 06:49:25;;;;;;;13.80;4.13;;;8.30;99.90;;;;;;5076660;28;20275;-84
2024/02/12 06:51:51;;;;;;;11.03;4.03;;;8.30;99.90;;;;;;5077020;28;20632;-83
2024/02/12 06:54:18;;;;;;;13.63;4.07;;;8.30;99.90;;;;;;5095356;28;20528;-85
2024/02/12 06:56:44;;;;;;;13.50;4.10;;;8.40;99.90;;;;;;5077460;28;20176;-86
2024/02/12 06:59:10;;;;;;;13.33;5.03;;;8.40;99.90;;;;;;5077302;28;20278;-84
2024/02/12 07:01:37;;;;;;;9.50;4.37;;;8.50;99.90;;;;;;5076811;28;20194;-85
2024/02/12 07:04:04;;;;;;;14.40;4.87;;;8.40;99.90;;;;;;5077061;28;20206;-84
2024/02/12 07:06:31;;;;;;;15.50;5.40;;;8.40;99.90;;;;;;5077151;28;20544;-85
2024/02/12 07:08:57;;;;;;;12.27;5.50;;;8.40;99.90;;;;;;5076714;28;20266;-83
2024/02/12 07:11:23;;;;;;;17.80;5.10;;;8.20;99.90;;;;;;5076530;28;20639;-84
2024/02/12 07:13:49;;;;;;;13.57;4.83;;;8.40;99.90;;;;;;5076700;28;20381;-84
2024/02/12 07:16:19;;;;;;;18.23;5.30;;;8.30;99.90;;;;;;5095197;28;20203;-84
2024/02/12 07:18:47;;;;;;;13.53;4.77;;;8.30;99.90;;;;;;5076950;28;20180;-86
2024/02/12 07:21:14;;;;;;;13.50;4.87;;;8.10;99.90;;;;;;5076768;28;20180;-82
2024/02/12 07:23:40;;;;;;;17.57;5.20;;;8.10;99.90;;;;;;5076208;28;20279;-85
2024/02/12 07:26:07;;;;;;;11.23;4.43;;;8.00;99.90;;;;;;5076945;28;20176;-84
2024/02/12 07:28:32;;;;;;;22.20;4.93;;;8.20;99.90;;;;;;5076387;28;20631;-84
2024/02/12 07:30:58;;;;;;;20.23;5.20;;;8.00;99.90;;;;;;5077012;28;20241;-84
2024/02/12 07:33:23;;;;;;;14.87;3.60;;;8.00;99.90;;;;;;5094905;28;20195;-84
2024/02/12 07:35:49;;;;;;;17.33;4.13;;;8.10;99.90;;;;;;5076683;28;20172;-85
2024/02/12 07:38:15;;;;;;;12.47;4.23;;;8.00;99.90;;;;;;5076523;28;20185;-84
2024/02/12 07:40:40;;;;;;;12.17;4.50;;;8.20;99.90;;;;;;5075938;28;20186;-83
2024/02/12 07:43:06;;;;;;;13.17;4.43;;;8.30;99.90;;;;;;5076737;28;20227;-84
2024/02/12 07:45:36;;;;;;;21.27;4.07;;;8.30;99.90;;;;;;5076375;28;20625;-83
2024/02/12 07:48:02;;;;;;;16.30;4.17;;;8.20;99.90;;;;;;5076433;28;20517;-86
2024/02/12 07:50:28;;;;;;;11.40;4.10;;;8.00;99.90;;;;;;5076917;28;20172;-84
2024/02/12 07:52:53;;;;;;;16.00;3.80;;;8.10;99.90;;;;;;5077877;28;20590;-83
2024/02/12 07:55:20;;;;;;;9.97;3.43;;;8.10;99.90;;;;;;5076165;28;20164;-84
2024/02/12 07:57:50;;;;;;;12.60;4.73;;;7.90;99.90;;;;;;5076028;28;20265;-84
2024/02/12 08:00:18;;;;;;;15.90;4.07;;;8.00;99.90;;;;;;5094078;28;20183;-84
2024/02/12 08:02:44;;;;;;;13.03;3.87;;;7.90;99.90;;;;;;5093994;28;20175;-83
2024/02/12 08:05:14;;;;;;;14.70;3.93;;;8.00;99.90;;;;;;5075809;28;20176;-84
2024/02/12 08:07:40;;;;;;;10.07;3.33;;;8.00;99.90;;;;;;5075592;28;20229;-88
2024/02/12 08:10:07;;;;;;;13.37;3.67;;;7.90;99.90;;;;;;5075633;28;20176;-83
2024/02/12 08:12:33;;;;;;;10.23;3.70;;;7.90;99.90;;;;;;5094079;28;20208;-84
2024/02/12 08:15:00;;;;;;;13.73;3.97;;;7.90;99.90;;;;;;5075743;28;20604;-84
2024/02/12 08:17:26;;;;;;;11.30;3.87;;;8.00;99.90;;;;;;5075962;28;20239;-84
2024/02/12 08:19:52;;;;;;;13.20;4.07;;;8.00;99.90;;;;;;5075552;28;20689;-83
2024/02/12 08:22:17;;;;;;;10.10;3.53;;;8.10;99.90;;;;;;5075333;28;20655;-84
2024/02/12 08:24:43;;;;;;;14.57;4.23;;;8.00;99.90;;;;;;5074774;28;20168;-85
2024/02/12 08:27:09;;;;;;;13.30;4.17;;;8.00;99.90;;;;;;5094010;28;20565;-84
2024/02/12 08:29:35;;;;;;;14.27;3.83;;;8.00;99.90;;;;;;5075384;28;20182;-84
2024/02/12 08:32:01;;;;;;;12.93;4.00;;;8.10;99.90;;;;;;5074890;28;20175;-85
2024/02/12 08:34:28;;;;;;;12.63;4.10;;;8.20;99.90;;;;;;5075150;28;20309;-84
2024/02/12 08:36:54;;;;;;;12.53;4.67;;;8.10;99.90;;;;;;5093336;28;20187;-83
2024/02/12 08:39:21;;;;;;;14.33;4.37;;;8.10;99.90;;;;;;5075314;28;20198;-86
2024/02/12 08:41:47;;;;;;;12.90;3.90;;;8.40;99.90;;;;;;5075542;28;20236;-85
2024/02/12 08:44:13;;;;;;;11.27;3.70;;;8.50;99.90;;;;;;5093734;28;20168;-85
2024/02/12 08:46:39;;;;;;;13.80;3.97;;;8.60;99.90;;;;;;5075123;28;20186;-85
2024/02/12 08:49:05;;;;;;;14.10;3.77;;;8.70;99.90;;;;;;5075104;28;20593;-84
2024/02/12 08:51:31;;;;;;;12.83;4.10;;;8.60;99.90;;;;;;5074854;28;20178;-84
2024/02/12 08:53:57;;;;;;;14.00;4.00;;;8.60;99.90;;;;;;5074721;28;20214;-86
2024/02/12 08:56:23;;;;;;;9.87;4.07;;;8.60;99.90;;;;;;5074652;28;20167;-84
2024/02/12 08:58:49;;;;;;;12.33;4.47;;;8.70;99.90;;;;;;5074616;28;20195;-85
2024/02/12 09:01:17;;;;;;;11.03;3.70;;;8.70;99.90;;;;;;5074411;28;20319;-84
2024/02/12 09:03:43;;;;;;;11.07;4.00;;;8.70;99.90;;;;;;5074411;28;20172;-84
2024/02/12 09:06:12;;;;;;;11.53;4.33;;;8.80;99.90;;;;;;5074102;28;20637;-84
2024/02/12 09:08:45;;;;;;;10.23;4.17;;;8.80;99.90;;;;;;5074394;28;20179;-84
2024/02/12 09:11:14;;;;;;;10.03;3.77;;;9.20;99.90;;;;;;5074347;28;20599;-84
2024/02/12 09:13:42;;;;;;;14.23;4.10;;;8.90;99.90;;;;;;5075367;28;20234;-87
2024/02/12 09:16:08;;;;;;;12.97;3.90;;;8.90;99.90;;;;;;5074950;28;20179;-92
2024/02/12 09:18:37;;;;;;;13.53;4.20;;;9.10;99.90;;;;;;5092811;28;20224;-88
2024/02/12 09:21:04;;;;;;;10.73;4.03;;;9.20;99.90;;;;;;5074276;28;20179;-84
2024/02/12 09:23:30;;;;;;;12.53;5.13;;;9.10;99.90;;;;;;5074685;28;20176;-85
2024/02/12 09:25:56;;;;;;;12.57;4.07;;;9.20;99.90;;;;;;5092372;28;20240;-84
2024/02/12 09:28:25;;;;;;;14.10;4.90;;;9.30;99.90;;;;;;5074424;28;20218;-86
2024/02/12 09:30:52;;;;;;;12.87;4.57;;;9.30;99.90;;;;;;5074601;28;20170;-88
2024/02/12 09:33:18;;;;;;;9.20;4.40;;;9.40;99.90;;;;;;5074122;28;20207;-84
2024/02/12 09:35:44;;;;;;;14.40;5.17;;;9.20;99.90;;;;;;5074200;28;20168;-88
2024/02/12 09:38:11;;;;;;;15.23;5.63;;;9.20;99.90;;;;;;5074255;28;20287;-84
2024/02/12 09:40:41;;;;;;;10.73;5.20;;;9.30;99.90;;;;;;5074345;28;20183;-84
2024/02/12 09:43:09;;;;;;;10.27;4.47;;;9.40;99.90;;;;;;5074848;28;20180;-90
2024/02/12 09:45:44;;;;;;;14.17;6.20;;;9.30;99.90;;;;;;5075677;28;20179;-87
2024/02/12 09:48:12;;;;;;;14.60;5.03;;;9.30;99.90;;;;;;5106359;28;20264;-88
2024/02/12 09:50:39;;;;;;;14.33;4.27;;;9.30;99.90;;;;;;5095476;28;20224;-87
2024/02/12 09:53:09;;;;;;;11.30;4.67;;;9.20;99.90;;;;;;5094462;28;20199;-84
2024/02/12 09:55:35;;;;;;;13.20;4.97;;;9.30;99.90;;;;;;5094551;28;20167;-84
2024/02/12 09:58:04;;;;;;;13.43;4.70;;;9.30;99.90;;;;;;5097489;28;20203;-83
2024/02/12 10:00:30;;;;;;;11.33;4.57;;;9.30;99.90;;;;;;5094827;28;20179;-84
2024/02/12 10:02:56;;;;;;;10.47;4.07;;;9.50;99.90;;;;;;5094545;28;20170;-84
2024/02/12 10:05:25;;;;;;;7.80;4.20;;;9.20;99.90;;;;;;5100949;28;20190;-83
2024/02/12 10:07:50;;;;;;;12.73;4.00;;;9.20;99.90;;;;;;5124297;28;20167;-84
2024/02/12 10:10:17;;;;;;;17.40;5.10;;;9.10;99.90;;;;;;5094549;28;20182;-84
2024/02/12 10:12:50;;;;;;;11.73;4.80;;;9.10;99.90;;;;;;5112326;28;20195;-82
2024/02/12 10:15:18;;;;;;;11.40;4.27;;;9.20;99.90;;;;;;5094248;28;20174;-85
2024/02/12 10:17:46;;;;;;;11.90;4.07;;;9.10;99.90;;;;;;5093185;28;20183;-85
2024/02/12 10:20:12;;;;;;;12.80;5.27;;;9.10;99.90;;;;;;5094084;28;20205;-84
2024/02/12 10:22:39;;;;;;;13.63;4.53;;;9.30;99.90;;;;;;5094018;28;20211;-86
2024/02/12 10:25:05;;;;;;;12.73;5.60;;;9.40;99.90;;;;;;5094139;28;20177;-84
2024/02/12 10:27:31;;;;;;;11.97;4.37;;;9.20;99.90;;;;;;5093598;28;20175;-84
2024/02/12 10:29:58;;;;;;;10.53;4.63;;;9.30;99.90;;;;;;5094094;28;20537;-84
2024/02/12 10:32:28;;;;;;;13.20;6.80;;;9.40;99.90;;;;;;5112646;28;20646;-85
2024/02/12 10:34:57;;;;;;;11.83;5.00;;;9.60;99.90;;;;;;5094114;28;20179;-86
2024/02/12 10:37:26;;;;;;;11.77;5.23;;;9.70;99.90;;;;;;5093827;28;20167;-85
2024/02/12 10:39:53;;;;;;;8.27;4.37;;;9.90;99.90;;;;;;5093987;28;20179;-84
2024/02/12 10:42:35;;;;;;;12.00;5.23;;;9.90;99.90;;;;;;5093950;28;20171;-86
2024/02/12 10:45:06;;;;;;;14.70;5.03;;;9.70;99.90;;;;;;5093988;28;20175;-84
2024/02/12 10:47:35;;;;;;;10.03;5.50;;;9.50;99.90;;;;;;5095916;28;20208;-83
2024/02/12 10:50:01;;;;;;;11.87;5.03;;;9.60;99.90;;;;;;5097601;28;20232;-83
2024/02/12 10:52:29;;;;;;;12.77;5.20;;;9.80;99.90;;;;;;5097659;28;20229;-84
2024/02/12 10:54:56;;;;;;;16.20;9.13;;;9.70;99.90;;;;;;5097210;28;20475;-85
2024/02/12 10:57:22;;;;;;;13.97;5.40;;;9.60;99.90;;;;;;5115487;28;20179;-84
2024/02/12 11:00:17;;;;;;;12.03;4.60;;;9.60;99.90;;;;;;5097238;28;20175;-85
2024/02/12 11:02:43;;;;;;;48.47;22.30;;;9.40;99.90;;;;;;5097146;28;20175;-84
2024/02/12 11:05:13;;;;;;;13.80;5.30;;;9.40;99.90;;;;;;5115550;28;20646;-84
2024/02/12 11:07:39;;;;;;;10.63;5.10;;;9.40;99.90;;;;;;5096735;28;20174;-85
2024/02/12 11:10:06;;;;;;;9.33;4.23;;;9.40;99.90;;;;;;5097154;28;20166;-84
2024/02/12 11:12:40;;;;;;;13.43;5.43;;;9.30;99.90;;;;;;5115574;28;20226;-83
2024/02/12 11:15:12;;;;;;;15.53;4.73;;;9.30;99.90;;;;;;5097101;28;20262;-84
2024/02/12 11:17:42;;;;;;;10.17;4.37;;;9.50;99.90;;;;;;5096987;28;20205;-85
2024/02/12 11:20:22;;;;;;;12.73;4.60;;;9.40;99.90;;;;;;5097243;28;20529;-88
2024/02/12 11:22:48;;;;;;;11.40;5.30;;;9.60;99.90;;;;;;5115216;28;20274;-85
2024/02/12 11:25:20;;;;;;;15.07;5.10;;;9.50;99.90;;;;;;5115504;28;20212;-86
2024/02/12 11:27:52;;;;;;;12.00;5.07;;;9.40;99.90;;;;;;5097140;28;20649;-84
2024/02/12 11:30:19;;;;;;;10.10;4.87;;;9.50;99.90;;;;;;5096742;28;20179;-84
2024/02/12 11:32:47;;;;;;;11.97;5.17;;;9.50;99.90;;;;;;5096624;28;20244;-84
2024/02/12 11:35:14;;;;;;;19.50;5.20;;;9.60;99.90;;;;;;5096850;28;20198;-84
2024/02/12 11:37:41;;;;;;;14.37;4.87;;;9.60;99.90;;;;;;5115038;28;20163;-83
2024/02/12 11:40:12;;;;;;;6.97;4.13;;;9.70;99.90;;;;;;5096666;28;20194;-83
2024/02/12 11:42:50;;;;;;;7.33;4.03;;;9.80;99.90;;;;;;5096396;28;20220;-84
2024/02/12 11:45:23;;;;;;;10.47;4.93;;;9.90;99.90;;;;;;5097281;28;20170;-85
2024/02/12 11:47:49;;;;;;;12.23;4.37;;;9.90;99.90;;;;;;5097461;28;20277;-85
2024/02/12 11:50:19;;;;;;;8.30;4.10;;;9.80;99.90;;;;;;5097468;28;20205;-85
2024/02/12 11:52:45;;;;;;;8.83;4.13;;;9.90;99.90;;;;;;5114509;28;20201;-89
2024/02/12 11:55:12;;;;;;;8.53;4.40;;;10.10;99.90;;;;;;5114852;28;20178;-84
2024/02/12 11:57:39;;;;;;;12.83;4.90;;;10.00;99.90;;;;;;5096389;28;20799;-85
2024/02/12 12:00:06;;;;;;;11.37;4.10;;;10.20;99.90;;;;;;5096005;28;20205;-84
2024/02/12 12:02:32;;;;;;;9.63;3.77;;;10.30;99.90;;;;;;5097940;28;20183;-87
2024/02/12 12:04:59;;;;;;;10.87;4.07;;;10.50;97.90;;;;;;5096134;28;20182;-85
2024/02/12 12:07:29;;;;;;;12.03;3.90;;;10.50;97.10;;;;;;5095624;28;20168;-84
2024/02/12 12:10:04;;;;;;;7.27;3.53;;;10.70;96.80;;;;;;5095428;28;20172;-86
2024/02/12 12:12:30;;;;;;;7.57;3.43;;;10.70;96.30;;;;;;5113653;28;20213;-85
2024/02/12 12:15:07;;;;;;;9.93;3.60;;;10.90;95.80;;;;;;5094628;28;20182;-85
2024/02/12 12:17:33;;;;;;;10.20;2.97;;;10.90;94.70;;;;;;5095240;28;20639;-85
2024/02/12 12:20:00;;;;;;;8.67;2.97;;;11.00;89.90;;;;;;5097684;28;20185;-84
2024/02/12 12:22:29;;;;;;;7.83;2.70;;;11.10;85.30;;;;;;5096689;28;20244;-85
2024/02/12 12:24:57;;;;;;;5.47;2.47;;;11.20;80.10;;;;;;5095401;28;20663;-84
2024/02/12 12:27:27;;;;;;;8.33;2.80;;;11.20;74.20;;;;;;5097144;28;20194;-84
2024/02/12 12:29:54;;;;;;;6.57;2.47;;;11.00;65.90;;;;;;5094806;28;20161;-84
2024/02/12 12:32:20;;;;;;;6.03;2.10;;;10.90;66.90;;;;;;5113214;28;20214;-84
2024/02/12 12:34:46;;;;;;;7.13;2.43;;;10.80;64.80;;;;;;5095056;28;20210;-84
2024/02/12 12:37:15;;;;;;;8.40;2.40;;;11.00;68.40;;;;;;5095748;28;20195;-84
2024/02/12 12:39:42;;;;;;;9.23;2.53;;;11.00;54.50;;;;;;5095524;28;20176;-85
2024/02/12 12:42:09;;;;;;;8.83;2.27;;;11.00;42.50;;;;;;5095103;28;20202;-84
2024/02/12 12:44:36;;;;;;;5.33;1.47;;;11.30;40.10;;;;;;5113821;28;20212;-85
2024/02/12 12:47:03;;;;;;;6.70;1.93;;;11.10;23.90;;;;;;5095032;28;20248;-84
2024/02/12 12:49:29;;;;;;;3.67;1.77;;;11.10;30.00;;;;;;5094419;28;20209;-85
2024/02/12 12:51:54;;;;;;;6.57;2.20;;;11.20;19.60;;;;;;5095053;28;20558;-84
2024/02/12 12:54:21;;;;;;;5.00;1.70;;;11.20;20.50;;;;;;5094949;28;20268;-84
2024/02/12 12:56:48;;;;;;;4.43;1.77;;;11.10;16.60;;;;;;5095071;28;20181;-84
2024/02/12 12:59:14;;;;;;;7.23;2.23;;;11.10;17.80;;;;;;5094593;28;20605;-84
2024/02/12 13:01:40;;;;;;;7.03;2.60;;;11.20;16.50;;;;;;5094803;28;20221;-84